Time;durP1;ratioP1;P1;durP2;ratioP2;P2;SDS_P1;SDS_P2;PMS_P1;PMS_P2;Temp;Humidity;BMP_temperature;BMP_pressure;BME280_temperature;BME280_humidity;BME280_pressure;Samples;Min_cycle;Max_cycle;Signal;HPM_P1;HPM_P2
2021/03/13 00:00:44;;;;;;;0.10;0.10;;;3.50;99.90;;;;;;5049837;28;20043;-76
2021/03/13 00:03:10;;;;;;;0.55;0.10;;;3.40;99.90;;;;;;5049072;28;20483;-75
2021/03/13 00:05:38;;;;;;;0.03;0.00;;;3.40;99.90;;;;;;5051842;28;20083;-75
2021/03/13 00:08:05;;;;;;;0.00;0.00;;;3.40;99.90;;;;;;5051060;28;20108;-75
2021/03/13 00:10:31;;;;;;;0.38;0.03;;;3.40;99.90;;;;;;5049717;28;20025;-75
2021/03/13 00:12:57;;;;;;;0.05;0.05;;;3.30;99.90;;;;;;5051720;28;20029;-74
2021/03/13 00:15:23;;;;;;;0.15;0.15;;;3.40;99.90;;;;;;5083939;28;20036;-75
2021/03/13 00:17:51;;;;;;;0.10;0.10;;;3.30;99.90;;;;;;5050865;28;20108;-75
2021/03/13 00:20:20;;;;;;;0.17;0.10;;;3.30;99.90;;;;;;5049867;28;20029;-75
2021/03/13 00:22:46;;;;;;;0.10;0.10;;;3.30;99.90;;;;;;5049715;28;20390;-75
2021/03/13 00:25:13;;;;;;;0.20;0.20;;;3.40;99.90;;;;;;5050798;28;20036;-75
2021/03/13 00:27:46;;;;;;;1.45;0.40;;;3.30;99.90;;;;;;5049137;28;20029;-74
2021/03/13 00:30:19;;;;;;;0.30;0.20;;;3.40;99.90;;;;;;5049096;28;20609;-75
2021/03/13 00:32:47;;;;;;;0.65;0.40;;;3.40;99.90;;;;;;5047147;28;20021;-74
2021/03/13 00:35:13;;;;;;;0.80;0.50;;;3.30;99.90;;;;;;5051707;28;20036;-75
2021/03/13 00:37:39;;;;;;;0.70;0.57;;;3.40;99.90;;;;;;5050998;28;20033;-75
2021/03/13 00:40:07;;;;;;;2.90;0.80;;;3.40;99.90;;;;;;5051445;28;20057;-74
2021/03/13 00:42:33;;;;;;;1.10;0.90;;;3.40;99.90;;;;;;5050827;28;20063;-75
2021/03/13 00:44:59;;;;;;;1.00;0.90;;;3.40;99.90;;;;;;5046041;28;20030;-75
2021/03/13 00:47:25;;;;;;;1.48;0.82;;;3.40;99.90;;;;;;5048313;28;20029;-75
2021/03/13 00:49:51;;;;;;;2.83;1.45;;;3.50;99.90;;;;;;5050925;28;20055;-74
2021/03/13 00:52:17;;;;;;;2.25;1.15;;;3.40;99.90;;;;;;5049548;28;20017;-74
2021/03/13 00:54:43;;;;;;;2.47;1.23;;;3.40;99.90;;;;;;5049970;28;20037;-75
2021/03/13 00:57:08;;;;;;;2.97;1.10;;;3.40;99.90;;;;;;5049092;28;20036;-75
2021/03/13 00:59:34;;;;;;;1.58;1.13;;;3.40;99.90;;;;;;5051216;28;20488;-75
2021/03/13 01:02:00;;;;;;;2.28;1.55;;;3.50;99.90;;;;;;5047617;28;20126;-75
2021/03/13 01:04:26;;;;;;;1.58;1.30;;;3.50;99.90;;;;;;5083079;28;20128;-75
2021/03/13 01:06:52;;;;;;;2.03;1.10;;;3.40;99.90;;;;;;5082814;28;20033;-74
2021/03/13 01:09:18;;;;;;;1.52;1.40;;;3.40;99.90;;;;;;5049651;28;20037;-75
2021/03/13 01:11:44;;;;;;;3.45;1.60;;;3.40;99.90;;;;;;5050223;28;20118;-74
2021/03/13 01:14:10;;;;;;;3.88;1.40;;;3.50;99.90;;;;;;5050948;28;20037;-74
2021/03/13 01:16:42;;;;;;;1.70;1.20;;;3.50;99.90;;;;;;5082611;28;20427;-74
2021/03/13 01:19:09;;;;;;;1.63;1.20;;;3.50;99.90;;;;;;5050475;28;20071;-74
2021/03/13 01:21:34;;;;;;;2.15;1.13;;;3.50;99.90;;;;;;5050076;28;20502;-75
2021/03/13 01:24:03;;;;;;;1.52;1.13;;;3.50;99.90;;;;;;5050493;28;20065;-75
2021/03/13 01:26:35;;;;;;;2.58;1.20;;;3.60;99.90;;;;;;5079991;28;20067;-74
2021/03/13 01:29:04;;;;;;;2.85;1.23;;;3.60;99.90;;;;;;5048853;28;20166;-75
2021/03/13 01:31:49;;;;;;;4.40;1.20;;;3.60;99.90;;;;;;5049686;28;20017;-74
2021/03/13 01:34:20;;;;;;;3.13;1.38;;;3.60;99.90;;;;;;5033330;28;20037;-74
2021/03/13 01:36:53;;;;;;;2.35;1.70;;;3.70;99.90;;;;;;5048687;28;20396;-74
2021/03/13 01:39:19;;;;;;;3.90;1.75;;;3.70;99.90;;;;;;5049123;28;20036;-75
2021/03/13 01:41:45;;;;;;;3.53;1.67;;;3.70;99.90;;;;;;5048535;28;20037;-75
2021/03/13 01:44:11;;;;;;;4.07;2.30;;;3.70;99.90;;;;;;5031731;28;20124;-75
2021/03/13 01:46:37;;;;;;;3.00;1.80;;;3.80;99.90;;;;;;5079392;28;20029;-74
2021/03/13 01:49:03;;;;;;;2.38;1.80;;;3.80;99.90;;;;;;5049773;28;20087;-74
2021/03/13 01:51:32;;;;;;;2.03;1.40;;;3.80;99.90;;;;;;5032197;28;20032;-75
2021/03/13 01:54:04;;;;;;;2.13;1.25;;;3.80;99.90;;;;;;5048799;28;20041;-75
2021/03/13 01:56:33;;;;;;;1.20;0.70;;;3.80;99.90;;;;;;5048438;28;20052;-75
2021/03/13 01:59:00;;;;;;;1.63;1.13;;;3.80;99.90;;;;;;5046487;28;20107;-75
2021/03/13 02:01:39;;;;;;;1.58;0.90;;;3.80;99.90;;;;;;5028240;28;20082;-74
2021/03/13 02:04:05;;;;;;;1.90;1.40;;;3.80;99.90;;;;;;5064593;28;20024;-74
2021/03/13 02:06:32;;;;;;;1.25;0.88;;;3.80;99.90;;;;;;5081752;28;20529;-74
2021/03/13 02:09:22;;;;;;;1.60;1.23;;;3.80;99.90;;;;;;5046902;28;20059;-74
2021/03/13 02:12:09;;;;;;;1.58;1.25;;;3.80;99.90;;;;;;5081464;28;20025;-74
2021/03/13 02:14:42;;;;;;;1.85;1.35;;;3.70;99.90;;;;;;5042552;28;20027;-74
2021/03/13 02:17:37;;;;;;;2.35;1.65;;;3.70;99.90;;;;;;5046773;28;20605;-74
2021/03/13 02:20:13;;;;;;;2.45;1.60;;;3.70;99.90;;;;;;5047126;28;20035;-74
2021/03/13 02:22:42;;;;;;;3.58;2.25;;;3.70;99.90;;;;;;5047779;28;20040;-74
2021/03/13 02:25:57;;;;;;;3.72;1.83;;;3.70;99.90;;;;;;5034455;28;20041;-75
2021/03/13 02:28:46;;;;;;;3.00;1.90;;;3.70;99.90;;;;;;5045236;28;20032;-75
2021/03/13 02:31:12;;;;;;;2.92;1.98;;;3.80;99.90;;;;;;5079639;28;20116;-75
2021/03/13 02:33:40;;;;;;;2.00;1.25;;;3.80;99.90;;;;;;5049858;28;20029;-74
2021/03/13 02:36:28;;;;;;;2.30;1.30;;;3.80;99.90;;;;;;5079373;28;20606;-74
2021/03/13 02:39:08;;;;;;;2.25;1.27;;;3.90;99.90;;;;;;5048075;28;20395;-74
2021/03/13 02:41:43;;;;;;;1.27;0.93;;;3.80;99.90;;;;;;5047886;28;20385;-75
2021/03/13 02:44:14;;;;;;;1.30;0.90;;;3.90;99.90;;;;;;5048458;28;20028;-75
2021/03/13 02:46:49;;;;;;;1.83;0.90;;;3.80;99.90;;;;;;5047870;28;20109;-74
2021/03/13 02:49:21;;;;;;;0.82;0.75;;;3.90;99.90;;;;;;5048075;28;20445;-74
2021/03/13 02:51:54;;;;;;;2.08;0.60;;;3.90;99.90;;;;;;5047791;28;20040;-75
2021/03/13 02:54:22;;;;;;;0.93;0.75;;;3.90;99.90;;;;;;5048410;28;20040;-74
2021/03/13 02:56:49;;;;;;;0.95;0.85;;;4.00;99.90;;;;;;5081506;28;20122;-75
2021/03/13 02:59:19;;;;;;;0.60;0.60;;;4.00;99.90;;;;;;5048321;28;20033;-75
2021/03/13 03:01:48;;;;;;;2.05;0.70;;;4.00;99.90;;;;;;5048644;28;20025;-75
2021/03/13 03:04:16;;;;;;;0.70;0.60;;;4.00;99.90;;;;;;5081556;28;20495;-75
2021/03/13 03:06:48;;;;;;;0.60;0.60;;;4.00;99.90;;;;;;5081180;28;20037;-74
2021/03/13 03:09:14;;;;;;;0.60;0.50;;;4.00;99.90;;;;;;5048194;28;20508;-74
2021/03/13 03:11:47;;;;;;;0.75;0.50;;;4.00;99.90;;;;;;5032118;28;20035;-75
2021/03/13 03:14:17;;;;;;;1.90;0.52;;;4.00;99.90;;;;;;5049923;28;20048;-74
2021/03/13 03:16:57;;;;;;;0.85;0.50;;;4.00;99.90;;;;;;5049499;28;20143;-74
2021/03/13 03:19:31;;;;;;;0.57;0.50;;;4.00;99.90;;;;;;5037863;28;20037;-75
2021/03/13 03:22:04;;;;;;;0.63;0.50;;;4.00;99.90;;;;;;5080046;28;20535;-74
2021/03/13 03:24:32;;;;;;;0.38;0.30;;;4.00;99.90;;;;;;5085008;28;20029;-75
2021/03/13 03:27:00;;;;;;;0.50;0.50;;;4.00;99.90;;;;;;5048126;28;20029;-74
2021/03/13 03:29:28;;;;;;;0.30;0.30;;;4.10;99.90;;;;;;5051251;28;20412;-75
2021/03/13 03:31:54;;;;;;;0.80;0.45;;;4.00;99.90;;;;;;5050689;28;20171;-75
2021/03/13 03:34:20;;;;;;;0.40;0.30;;;4.00;99.90;;;;;;5051408;28;20033;-75
2021/03/13 03:36:49;;;;;;;1.55;0.40;;;4.00;99.90;;;;;;5080722;28;20124;-75
2021/03/13 03:39:15;;;;;;;0.28;0.28;;;4.00;99.90;;;;;;5084551;28;20036;-74
2021/03/13 03:41:44;;;;;;;1.02;0.38;;;3.90;99.90;;;;;;5049422;28;20427;-75
2021/03/13 03:44:19;;;;;;;0.40;0.38;;;3.90;99.90;;;;;;5050828;28;20399;-73
2021/03/13 03:46:58;;;;;;;1.67;0.40;;;4.00;99.90;;;;;;5050432;28;20025;-74
2021/03/13 03:49:27;;;;;;;0.55;0.40;;;4.00;99.90;;;;;;5050800;28;20037;-75
2021/03/13 03:52:11;;;;;;;0.35;0.35;;;4.00;99.90;;;;;;5050236;28;20094;-74
2021/03/13 03:54:39;;;;;;;0.77;0.40;;;4.00;99.90;;;;;;5051233;28;20037;-74
2021/03/13 03:57:09;;;;;;;0.68;0.50;;;4.00;99.90;;;;;;5051820;28;20040;-74
2021/03/13 03:59:38;;;;;;;2.13;0.60;;;4.00;99.90;;;;;;5052102;28;20069;-75
2021/03/13 04:02:04;;;;;;;0.38;0.38;;;4.00;99.90;;;;;;5051513;28;20036;-74
2021/03/13 04:04:30;;;;;;;0.28;0.28;;;4.00;99.90;;;;;;5052092;28;20029;-75
2021/03/13 04:06:58;;;;;;;0.70;0.30;;;4.00;99.90;;;;;;5051612;28;20055;-75
2021/03/13 04:09:27;;;;;;;0.35;0.35;;;4.00;99.90;;;;;;5052028;28;20036;-74
2021/03/13 04:11:54;;;;;;;0.73;0.38;;;4.00;99.90;;;;;;5051499;28;20116;-75
2021/03/13 04:14:21;;;;;;;0.60;0.50;;;4.00;99.90;;;;;;5050791;28;20044;-75
2021/03/13 04:16:48;;;;;;;0.30;0.30;;;4.00;99.90;;;;;;5049872;28;20036;-75
2021/03/13 04:19:13;;;;;;;0.73;0.40;;;4.00;99.90;;;;;;5051496;28;20130;-74
2021/03/13 04:21:40;;;;;;;1.42;0.40;;;4.00;99.90;;;;;;5051247;28;20056;-74
2021/03/13 04:24:07;;;;;;;0.30;0.30;;;4.00;99.90;;;;;;5051742;28;20025;-74
2021/03/13 04:26:35;;;;;;;0.32;0.32;;;4.00;99.90;;;;;;5048936;28;20488;-74
2021/03/13 04:29:02;;;;;;;0.60;0.52;;;4.00;99.90;;;;;;5051475;28;20037;-74
2021/03/13 04:31:30;;;;;;;0.50;0.50;;;4.00;99.90;;;;;;5051172;28;20395;-74
2021/03/13 04:33:58;;;;;;;0.40;0.40;;;4.00;99.90;;;;;;5051657;28;20425;-75
2021/03/13 04:36:28;;;;;;;0.45;0.32;;;4.00;99.90;;;;;;5051016;28;20037;-74
2021/03/13 04:38:57;;;;;;;0.60;0.60;;;4.00;99.90;;;;;;5051486;28;20728;-74
2021/03/13 04:41:24;;;;;;;0.65;0.50;;;4.00;99.90;;;;;;5050829;28;20064;-75
2021/03/13 04:43:51;;;;;;;0.80;0.80;;;4.00;99.90;;;;;;5051533;28;20029;-74
2021/03/13 04:46:17;;;;;;;0.50;0.50;;;4.00;99.90;;;;;;5050879;28;20590;-75
2021/03/13 04:48:44;;;;;;;0.88;0.80;;;4.00;99.90;;;;;;5046168;28;20112;-75
2021/03/13 04:51:10;;;;;;;0.40;0.40;;;4.00;99.90;;;;;;5047112;28;20400;-75
2021/03/13 04:53:36;;;;;;;1.30;0.50;;;4.00;99.90;;;;;;5048958;28;20078;-75
2021/03/13 04:56:02;;;;;;;1.55;0.82;;;4.00;99.90;;;;;;5050911;28;20112;-75
2021/03/13 04:58:29;;;;;;;0.55;0.50;;;4.00;99.90;;;;;;5080607;28;20072;-75
2021/03/13 05:00:55;;;;;;;0.88;0.70;;;4.00;99.90;;;;;;5049577;28;20021;-74
2021/03/13 05:03:21;;;;;;;1.02;0.57;;;4.00;99.90;;;;;;5050736;28;20057;-74
2021/03/13 05:05:47;;;;;;;1.58;0.60;;;4.00;99.90;;;;;;5051148;28;20048;-75
2021/03/13 05:08:13;;;;;;;1.38;0.70;;;4.00;99.90;;;;;;5032322;28;20033;-74
2021/03/13 05:10:39;;;;;;;0.60;0.40;;;4.00;99.90;;;;;;5050395;28;20029;-74
2021/03/13 05:13:04;;;;;;;0.50;0.45;;;4.10;99.90;;;;;;5047014;28;20144;-74
2021/03/13 05:15:30;;;;;;;1.08;0.70;;;4.10;99.90;;;;;;5050336;28;20025;-74
2021/03/13 05:17:56;;;;;;;0.35;0.35;;;4.10;99.90;;;;;;5049979;28;20320;-73
2021/03/13 05:20:22;;;;;;;1.55;0.50;;;4.10;99.90;;;;;;5050225;28;20029;-74
2021/03/13 05:22:49;;;;;;;2.08;1.10;;;4.10;99.90;;;;;;5050056;28;20484;-76
2021/03/13 05:25:15;;;;;;;0.75;0.73;;;4.10;99.90;;;;;;5050448;28;20051;-76
2021/03/13 05:27:41;;;;;;;0.93;0.65;;;4.10;99.90;;;;;;5049775;28;20040;-76
2021/03/13 05:30:08;;;;;;;1.25;0.82;;;4.10;99.90;;;;;;5050442;28;20057;-75
2021/03/13 05:32:35;;;;;;;1.30;0.65;;;4.10;99.90;;;;;;5050115;28;20048;-75
2021/03/13 05:35:01;;;;;;;1.98;0.73;;;4.10;99.90;;;;;;5050503;28;20073;-75
2021/03/13 05:37:29;;;;;;;1.10;1.00;;;4.20;99.90;;;;;;5049381;28;20588;-75
2021/03/13 05:39:56;;;;;;;4.65;0.70;;;4.20;99.90;;;;;;5050560;28;20079;-74
2021/03/13 05:42:22;;;;;;;2.00;0.60;;;4.20;99.90;;;;;;5049767;28;20037;-74
2021/03/13 05:44:48;;;;;;;1.60;0.90;;;4.20;99.90;;;;;;5050175;28;20021;-75
2021/03/13 05:47:14;;;;;;;1.80;1.20;;;4.20;99.90;;;;;;5048560;28;20037;-75
2021/03/13 05:49:43;;;;;;;2.75;0.90;;;4.30;99.90;;;;;;5050206;28;20039;-75
2021/03/13 05:52:10;;;;;;;4.07;0.90;;;4.20;99.90;;;;;;5049733;28;20041;-74
2021/03/13 05:54:36;;;;;;;2.03;0.95;;;4.30;99.90;;;;;;5049040;28;20562;-74
2021/03/13 05:57:06;;;;;;;1.20;0.80;;;4.30;99.90;;;;;;5049637;28;20419;-73
2021/03/13 05:59:34;;;;;;;0.70;0.70;;;4.30;99.90;;;;;;5048156;28;20033;-74
2021/03/13 06:02:03;;;;;;;3.53;1.05;;;4.30;99.90;;;;;;5049346;28;20155;-74
2021/03/13 06:04:29;;;;;;;1.38;1.00;;;4.40;99.90;;;;;;5050007;28;20037;-74
2021/03/13 06:06:56;;;;;;;2.45;1.10;;;4.40;99.90;;;;;;5048416;28;20032;-75
2021/03/13 06:09:21;;;;;;;2.33;0.90;;;4.40;99.90;;;;;;5049942;28;20128;-74
2021/03/13 06:11:47;;;;;;;2.05;0.93;;;4.50;99.90;;;;;;5049406;28;20142;-75
2021/03/13 06:14:13;;;;;;;1.58;0.98;;;4.50;99.90;;;;;;5049997;28;20416;-75
2021/03/13 06:16:38;;;;;;;0.98;0.65;;;4.40;99.90;;;;;;5048449;28;20067;-75
2021/03/13 06:19:04;;;;;;;1.05;0.77;;;4.40;99.90;;;;;;5050021;28;20124;-74
2021/03/13 06:21:33;;;;;;;0.93;0.60;;;4.40;99.90;;;;;;5049408;28;20031;-75
2021/03/13 06:24:08;;;;;;;1.63;0.75;;;4.50;99.90;;;;;;5049675;28;20079;-74
2021/03/13 06:26:52;;;;;;;4.13;1.00;;;4.60;99.90;;;;;;5048853;28;20622;-74
2021/03/13 06:29:18;;;;;;;1.85;0.82;;;4.60;99.90;;;;;;5047977;28;20048;-74
2021/03/13 06:31:43;;;;;;;0.70;0.68;;;4.60;99.90;;;;;;5049412;28;20029;-74
2021/03/13 06:34:25;;;;;;;2.03;0.80;;;4.60;99.90;;;;;;5049895;28;20090;-74
2021/03/13 06:37:13;;;;;;;0.70;0.70;;;4.70;99.90;;;;;;5049429;28;20033;-75
2021/03/13 06:39:39;;;;;;;2.58;0.60;;;4.70;99.90;;;;;;5049606;28;20653;-74
2021/03/13 06:42:31;;;;;;;0.55;0.50;;;4.70;99.90;;;;;;5049104;28;20041;-76
2021/03/13 06:44:57;;;;;;;1.52;0.50;;;4.80;99.90;;;;;;5046940;28;20052;-75
2021/03/13 06:47:38;;;;;;;0.45;0.40;;;4.80;99.90;;;;;;5047385;28;20504;-75
2021/03/13 06:50:17;;;;;;;0.40;0.40;;;4.80;99.90;;;;;;5051640;28;20041;-74
2021/03/13 06:52:50;;;;;;;1.20;0.47;;;4.80;99.90;;;;;;5053150;28;20064;-75
2021/03/13 06:55:19;;;;;;;0.95;0.52;;;4.80;99.90;;;;;;5053573;28;20457;-74
2021/03/13 06:57:47;;;;;;;2.55;0.65;;;4.90;99.90;;;;;;5052539;28;20082;-74
2021/03/13 07:00:32;;;;;;;3.95;0.70;;;4.90;99.90;;;;;;5053304;28;20064;-74
2021/03/13 07:03:05;;;;;;;0.32;0.32;;;4.80;99.90;;;;;;5053174;28;20028;-75
2021/03/13 07:05:31;;;;;;;1.17;0.40;;;4.80;99.90;;;;;;5051973;28;20460;-76
2021/03/13 07:07:57;;;;;;;5.40;0.70;;;4.80;99.90;;;;;;5052468;28;20099;-76
2021/03/13 07:10:27;;;;;;;1.48;0.52;;;4.90;99.90;;;;;;5052930;28;20053;-76
2021/03/13 07:12:53;;;;;;;2.17;0.65;;;4.90;99.90;;;;;;5051656;28;20033;-75
2021/03/13 07:15:23;;;;;;;1.00;0.40;;;4.90;99.90;;;;;;5053321;28;20037;-75
2021/03/13 07:18:00;;;;;;;1.52;0.55;;;4.90;99.90;;;;;;5052804;28;20083;-74
2021/03/13 07:20:31;;;;;;;0.77;0.40;;;5.00;99.90;;;;;;5052309;28;20107;-74
2021/03/13 07:23:05;;;;;;;1.05;0.55;;;5.00;99.90;;;;;;5052884;28;20377;-75
2021/03/13 07:25:32;;;;;;;0.80;0.30;;;5.00;99.90;;;;;;5050329;28;20017;-75
2021/03/13 07:28:06;;;;;;;2.55;0.60;;;5.00;99.90;;;;;;5052067;28;20078;-75
2021/03/13 07:30:35;;;;;;;2.22;0.82;;;5.10;99.90;;;;;;5052288;28;20024;-75
2021/03/13 07:33:08;;;;;;;3.45;0.50;;;5.10;99.90;;;;;;5052759;28;20025;-75
2021/03/13 07:35:38;;;;;;;0.88;0.50;;;5.10;99.90;;;;;;5035018;28;20546;-75
2021/03/13 07:38:07;;;;;;;2.38;0.52;;;5.10;99.90;;;;;;5052001;28;20036;-76
2021/03/13 07:40:39;;;;;;;2.88;0.50;;;5.10;99.90;;;;;;5051999;28;20041;-75
2021/03/13 07:43:07;;;;;;;0.40;0.40;;;5.10;99.90;;;;;;5048802;28;20464;-74
2021/03/13 07:45:32;;;;;;;2.58;0.52;;;5.20;99.90;;;;;;5046847;28;20060;-75
2021/03/13 07:47:59;;;;;;;1.10;0.82;;;5.20;99.90;;;;;;5051507;28;20029;-74
2021/03/13 07:50:25;;;;;;;1.13;0.40;;;5.30;99.90;;;;;;5052256;28;20017;-75
2021/03/13 07:52:51;;;;;;;2.17;0.45;;;5.30;99.90;;;;;;5052098;28;20028;-74
2021/03/13 07:55:20;;;;;;;2.25;0.50;;;5.40;99.90;;;;;;5052443;28;20120;-75
2021/03/13 07:57:50;;;;;;;0.85;0.52;;;5.50;99.90;;;;;;5051929;28;20107;-75
2021/03/13 08:00:16;;;;;;;2.17;0.43;;;5.50;99.90;;;;;;5052015;28;20491;-74
2021/03/13 08:02:46;;;;;;;0.40;0.35;;;5.60;99.90;;;;;;5051559;28;20065;-75
2021/03/13 08:05:15;;;;;;;2.83;1.10;;;5.70;99.90;;;;;;5052250;28;20048;-75
2021/03/13 08:07:53;;;;;;;1.27;0.40;;;5.70;99.90;;;;;;5051634;28;20070;-75
2021/03/13 08:10:40;;;;;;;1.92;0.50;;;5.80;99.90;;;;;;5051262;28;20051;-74
2021/03/13 08:13:10;;;;;;;3.42;0.60;;;5.80;99.90;;;;;;5051426;28;20064;-74
2021/03/13 08:15:39;;;;;;;0.43;0.30;;;5.80;99.90;;;;;;5049577;28;20047;-74
2021/03/13 08:18:06;;;;;;;2.17;0.68;;;5.80;99.90;;;;;;5051050;28;20021;-75
2021/03/13 08:20:34;;;;;;;0.85;0.50;;;5.80;99.90;;;;;;5050846;28;20029;-74
2021/03/13 08:23:15;;;;;;;2.45;0.60;;;5.80;99.90;;;;;;5048998;28;20488;-74
2021/03/13 08:25:58;;;;;;;2.00;0.50;;;5.80;99.90;;;;;;5051662;28;20072;-75
2021/03/13 08:28:45;;;;;;;2.67;0.70;;;5.80;99.90;;;;;;5051298;28;20546;-76
2021/03/13 08:31:33;;;;;;;2.05;0.70;;;5.90;99.90;;;;;;5051212;28;20025;-76
2021/03/13 08:34:02;;;;;;;3.22;0.70;;;6.00;99.90;;;;;;5051763;28;20033;-75
2021/03/13 08:36:30;;;;;;;1.13;0.52;;;6.00;99.90;;;;;;5049994;28;20052;-75
2021/03/13 08:39:07;;;;;;;0.85;0.60;;;6.10;99.90;;;;;;5051436;28;20041;-75
2021/03/13 08:41:42;;;;;;;1.65;0.50;;;6.20;99.90;;;;;;5050670;28;20048;-75
2021/03/13 08:44:13;;;;;;;2.53;1.33;;;6.30;99.90;;;;;;5051563;28;20021;-75
2021/03/13 08:46:47;;;;;;;2.17;0.50;;;6.30;99.90;;;;;;5050945;28;20287;-75
2021/03/13 08:49:28;;;;;;;0.40;0.40;;;6.30;99.90;;;;;;5051445;28;20116;-75
2021/03/13 08:52:09;;;;;;;1.13;0.60;;;6.30;99.90;;;;;;5050655;28;20152;-75
2021/03/13 08:54:38;;;;;;;0.50;0.38;;;6.30;99.90;;;;;;5050797;28;20025;-75
2021/03/13 08:57:10;;;;;;;1.52;0.50;;;6.30;99.90;;;;;;5050414;28;20033;-75
2021/03/13 08:59:38;;;;;;;1.65;0.35;;;6.30;99.90;;;;;;5080765;28;20044;-74
2021/03/13 09:02:08;;;;;;;3.67;1.15;;;6.40;99.90;;;;;;5050512;28;20035;-74
2021/03/13 09:04:36;;;;;;;0.93;0.52;;;6.40;99.90;;;;;;5050833;28;20048;-75
2021/03/13 09:07:03;;;;;;;1.50;0.55;;;6.40;99.90;;;;;;5047058;28;20060;-75
2021/03/13 09:09:32;;;;;;;1.15;0.50;;;6.40;99.90;;;;;;5047119;28;20059;-75
2021/03/13 09:12:00;;;;;;;2.40;0.38;;;6.40;99.90;;;;;;5045742;28;20033;-75
2021/03/13 09:14:26;;;;;;;1.15;0.50;;;6.50;99.90;;;;;;5047253;28;20514;-74
2021/03/13 09:16:53;;;;;;;3.05;0.40;;;6.50;99.90;;;;;;5047333;28;20025;-75
2021/03/13 09:19:19;;;;;;;1.85;0.60;;;6.50;99.90;;;;;;5046962;28;20090;-75
2021/03/13 09:21:56;;;;;;;1.73;0.50;;;6.60;99.90;;;;;;5042701;28;20048;-75
2021/03/13 09:24:24;;;;;;;1.27;0.30;;;6.60;99.90;;;;;;5043734;28;20025;-75
2021/03/13 09:26:56;;;;;;;1.20;0.28;;;6.70;99.90;;;;;;5042300;28;20730;-76
2021/03/13 09:29:36;;;;;;;0.57;0.30;;;6.80;99.90;;;;;;5040584;28;20036;-75
2021/03/13 09:32:11;;;;;;;0.40;0.30;;;6.90;99.90;;;;;;5042171;28;20764;-75
2021/03/13 09:34:39;;;;;;;0.17;0.10;;;6.90;99.90;;;;;;5045139;28;20045;-75
2021/03/13 09:37:20;;;;;;;1.45;0.63;;;7.00;99.90;;;;;;5042019;28;20041;-75
2021/03/13 09:39:54;;;;;;;0.90;0.30;;;7.00;99.90;;;;;;5077900;28;20039;-75
2021/03/13 09:42:22;;;;;;;2.25;0.40;;;7.10;99.90;;;;;;5044444;28;20087;-74
2021/03/13 09:44:49;;;;;;;0.95;0.20;;;7.10;99.90;;;;;;5045238;28;20037;-75
2021/03/13 09:47:32;;;;;;;1.08;0.32;;;7.20;99.90;;;;;;5040643;28;20519;-76
2021/03/13 09:49:59;;;;;;;1.00;0.40;;;7.20;99.90;;;;;;5044336;28;20123;-76
2021/03/13 09:52:38;;;;;;;1.08;0.45;;;7.40;99.90;;;;;;5038947;28;20033;-76
2021/03/13 09:55:09;;;;;;;0.80;0.30;;;7.50;99.90;;;;;;5046559;28;20045;-76
2021/03/13 09:57:35;;;;;;;1.45;0.30;;;7.50;99.90;;;;;;5044829;28;20037;-75
2021/03/13 10:00:04;;;;;;;0.30;0.20;;;7.50;99.90;;;;;;5047486;28;20039;-75
2021/03/13 10:02:30;;;;;;;1.27;0.30;;;7.50;99.90;;;;;;5045707;28;20063;-76
2021/03/13 10:04:56;;;;;;;0.20;0.20;;;7.50;99.90;;;;;;5045121;28;20025;-75
2021/03/13 10:07:22;;;;;;;0.90;0.40;;;7.40;99.90;;;;;;5046227;28;20090;-74
2021/03/13 10:10:02;;;;;;;0.65;0.20;;;7.40;99.90;;;;;;5045873;28;20029;-74
2021/03/13 10:12:31;;;;;;;0.52;0.20;;;7.30;99.90;;;;;;5045724;28;20091;-74
2021/03/13 10:15:24;;;;;;;2.03;0.30;;;7.20;99.90;;;;;;5046430;28;20431;-74
2021/03/13 10:18:07;;;;;;;0.22;0.20;;;7.20;99.90;;;;;;5044422;28;20033;-74
2021/03/13 10:20:35;;;;;;;0.47;0.20;;;7.20;99.90;;;;;;5046044;28;20479;-74
2021/03/13 10:23:10;;;;;;;2.25;0.30;;;7.20;99.90;;;;;;5045854;28;20111;-74
2021/03/13 10:25:37;;;;;;;2.97;0.35;;;7.30;99.90;;;;;;5050166;28;20024;-74
2021/03/13 10:28:05;;;;;;;0.60;0.30;;;7.40;99.90;;;;;;5042995;28;20029;-75
2021/03/13 10:30:31;;;;;;;0.32;0.25;;;7.50;99.90;;;;;;5048475;28;20071;-73
2021/03/13 10:32:57;;;;;;;0.60;0.40;;;7.50;99.90;;;;;;5045892;28;20387;-74
2021/03/13 10:35:27;;;;;;;0.88;0.20;;;7.60;99.90;;;;;;5045511;28;20033;-74
2021/03/13 10:37:56;;;;;;;1.38;0.32;;;7.60;99.90;;;;;;5049440;28;20037;-73
2021/03/13 10:40:34;;;;;;;1.95;0.30;;;7.70;99.90;;;;;;5048104;28;20065;-74
2021/03/13 10:43:15;;;;;;;3.05;0.30;;;7.70;99.90;;;;;;5047594;28;20021;-74
2021/03/13 10:45:43;;;;;;;0.30;0.22;;;7.70;99.90;;;;;;5047344;28;20427;-75
2021/03/13 10:48:10;;;;;;;0.20;0.17;;;7.70;99.90;;;;;;5044092;28;20052;-75
2021/03/13 10:50:39;;;;;;;0.20;0.20;;;7.70;99.90;;;;;;5074795;28;20045;-75
2021/03/13 10:53:32;;;;;;;2.22;0.47;;;7.70;99.90;;;;;;5048894;28;20973;-74
2021/03/13 10:56:03;;;;;;;1.60;0.30;;;7.80;99.90;;;;;;5047721;28;20499;-74
2021/03/13 10:58:31;;;;;;;1.65;0.45;;;7.80;99.90;;;;;;5044259;28;20400;-74
2021/03/13 11:00:59;;;;;;;1.05;0.52;;;7.80;99.90;;;;;;5046581;28;20385;-74
2021/03/13 11:03:25;;;;;;;2.45;0.30;;;7.90;99.90;;;;;;5046904;28;20407;-74
2021/03/13 11:05:52;;;;;;;1.55;0.45;;;7.80;99.90;;;;;;5049866;28;20060;-74
2021/03/13 11:08:26;;;;;;;2.40;0.40;;;7.90;99.90;;;;;;5046836;28;20025;-74
2021/03/13 11:10:53;;;;;;;2.88;0.55;;;7.80;99.90;;;;;;5040087;28;20048;-74
2021/03/13 11:13:20;;;;;;;0.63;0.28;;;7.90;99.90;;;;;;5043164;28;20040;-75
2021/03/13 11:15:46;;;;;;;1.30;0.40;;;7.80;99.90;;;;;;5043279;28;20440;-75
2021/03/13 11:18:11;;;;;;;1.33;0.30;;;7.90;99.90;;;;;;5047450;28;20039;-74
2021/03/13 11:20:38;;;;;;;1.35;0.30;;;7.80;99.90;;;;;;5043348;28;20480;-74
2021/03/13 11:23:04;;;;;;;0.55;0.20;;;7.80;99.90;;;;;;5043726;28;20396;-75
2021/03/13 11:25:30;;;;;;;0.25;0.13;;;7.80;99.90;;;;;;5044836;28;20578;-74
2021/03/13 11:27:56;;;;;;;0.90;0.30;;;7.70;99.90;;;;;;5081476;28;20108;-75
2021/03/13 11:30:23;;;;;;;0.77;0.40;;;7.60;99.90;;;;;;5045777;28;20367;-75
2021/03/13 11:32:49;;;;;;;1.48;0.20;;;7.60;99.90;;;;;;5045466;28;20029;-73
2021/03/13 11:35:15;;;;;;;0.25;0.10;;;7.50;99.90;;;;;;5078781;28;20086;-74
2021/03/13 11:37:41;;;;;;;1.55;0.25;;;7.50;99.90;;;;;;5043027;28;20029;-74
2021/03/13 11:40:09;;;;;;;2.53;0.15;;;7.40;99.90;;;;;;5048874;28;20025;-74
2021/03/13 11:42:35;;;;;;;0.63;0.20;;;7.40;99.90;;;;;;5046554;28;20032;-74
2021/03/13 11:45:02;;;;;;;0.10;0.10;;;7.30;99.90;;;;;;5048122;28;20029;-76
2021/03/13 11:47:28;;;;;;;0.22;0.20;;;7.20;99.90;;;;;;5048445;28;20033;-75
2021/03/13 11:49:54;;;;;;;0.60;0.28;;;7.20;99.90;;;;;;5045108;28;20032;-75
2021/03/13 11:52:21;;;;;;;2.10;0.30;;;7.10;99.90;;;;;;5046556;28;20083;-75
2021/03/13 11:54:48;;;;;;;0.38;0.20;;;7.00;99.90;;;;;;5049342;28;20039;-75
2021/03/13 11:57:14;;;;;;;0.45;0.20;;;7.00;99.90;;;;;;5063454;28;20029;-75
2021/03/13 11:59:41;;;;;;;0.52;0.20;;;7.00;99.90;;;;;;5048477;28;20036;-75
2021/03/13 12:02:07;;;;;;;1.17;0.20;;;6.90;99.90;;;;;;5046507;28;20036;-75
2021/03/13 12:04:33;;;;;;;1.65;0.20;;;6.90;99.90;;;;;;5048255;28;20037;-75
2021/03/13 12:06:58;;;;;;;0.57;0.30;;;6.90;99.90;;;;;;5048116;28;20732;-74
2021/03/13 12:09:24;;;;;;;0.55;0.30;;;6.90;99.90;;;;;;5048451;28;20021;-74
2021/03/13 12:11:50;;;;;;;1.05;0.20;;;6.90;99.90;;;;;;5079901;28;20029;-74
2021/03/13 12:14:15;;;;;;;4.38;0.20;;;6.90;99.90;;;;;;5048469;28;20025;-76
2021/03/13 12:16:41;;;;;;;0.40;0.10;;;6.80;99.90;;;;;;5048051;28;20577;-74
2021/03/13 12:19:07;;;;;;;0.82;0.30;;;6.80;99.90;;;;;;5048220;28;20539;-74
2021/03/13 12:21:33;;;;;;;0.50;0.20;;;6.80;99.90;;;;;;5045763;28;20480;-76
2021/03/13 12:23:59;;;;;;;0.35;0.10;;;6.70;99.90;;;;;;5046587;28;20035;-76
2021/03/13 12:26:25;;;;;;;5.05;0.40;;;6.70;99.90;;;;;;5047783;28;20111;-74
2021/03/13 12:28:51;;;;;;;0.10;0.10;;;6.70;99.90;;;;;;5047951;28;20519;-76
2021/03/13 12:31:18;;;;;;;0.93;0.30;;;6.70;99.90;;;;;;5044410;28;20106;-74
2021/03/13 12:33:44;;;;;;;0.73;0.20;;;6.70;99.90;;;;;;5045789;28;20025;-74
2021/03/13 12:36:10;;;;;;;2.25;0.32;;;6.70;99.90;;;;;;5044676;28;20797;-75
2021/03/13 12:38:36;;;;;;;1.15;0.30;;;6.80;99.90;;;;;;5043555;28;20128;-75
2021/03/13 12:41:03;;;;;;;0.20;0.20;;;6.80;99.90;;;;;;5045644;28;20107;-75
2021/03/13 12:43:29;;;;;;;1.35;0.28;;;6.80;99.90;;;;;;5047282;28;20571;-74
2021/03/13 12:45:55;;;;;;;2.35;0.30;;;6.80;99.90;;;;;;5047429;28;20116;-74
2021/03/13 12:48:21;;;;;;;0.98;0.22;;;6.90;99.90;;;;;;5046285;28;20025;-75
2021/03/13 12:50:47;;;;;;;0.20;0.20;;;6.90;99.90;;;;;;5045971;28;20518;-74
2021/03/13 12:53:12;;;;;;;0.80;0.20;;;7.00;99.90;;;;;;5048950;28;20028;-73
2021/03/13 12:55:38;;;;;;;0.40;0.25;;;7.00;99.90;;;;;;5050080;28;20024;-74
2021/03/13 12:58:04;;;;;;;3.67;0.22;;;7.00;99.90;;;;;;5046472;28;20033;-74
2021/03/13 13:00:29;;;;;;;0.13;0.10;;;7.00;99.90;;;;;;5047398;28;20622;-76
2021/03/13 13:02:55;;;;;;;1.73;0.30;;;7.00;99.90;;;;;;5046874;28;20028;-74
2021/03/13 13:05:21;;;;;;;1.65;0.30;;;7.00;99.90;;;;;;5047127;28;20033;-75
2021/03/13 13:07:49;;;;;;;1.58;0.40;;;7.00;99.90;;;;;;5046757;28;20029;-74
2021/03/13 13:10:18;;;;;;;1.33;0.52;;;7.00;99.90;;;;;;5046963;28;20504;-74